Time;durP1;ratioP1;P1;durP2;ratioP2;P2;SDS_P1;SDS_P2;PMS_P1;PMS_P2;Temp;Humidity;BMP_temperature;BMP_pressure;BME280_temperature;BME280_humidity;BME280_pressure;Samples;Min_cycle;Max_cycle;Signal;HPM_P1;HPM_P2
2022/10/02 00:01:54;;;;;;;7.60;2.40;;;;;;;;;;5051276;28;20224;-48
2022/10/02 00:04:24;;;;;;;7.77;2.27;;;;;;;;;;5050946;28;20344;-48
2022/10/02 00:06:50;;;;;;;6.67;2.53;;;;;;;;;;5050969;28;20207;-49
2022/10/02 00:09:20;;;;;;;8.93;2.60;;;;;;;;;;5051053;28;20658;-47
2022/10/02 00:11:48;;;;;;;8.60;2.83;;;;;;;;;;5051247;28;20614;-47
2022/10/02 00:14:16;;;;;;;7.00;2.57;;;;;;;;;;5050980;28;20290;-47
2022/10/02 00:16:43;;;;;;;7.30;2.30;;;;;;;;;;5050907;28;20248;-47
2022/10/02 00:19:10;;;;;;;10.47;2.73;;;;;;;;;;5050942;28;20203;-47
2022/10/02 00:21:45;;;;;;;10.50;2.83;;;;;;;;;;5050891;28;20192;-47
2022/10/02 00:24:13;;;;;;;8.23;2.47;;;;;;;;;;5051066;28;20207;-47
2022/10/02 00:26:40;;;;;;;10.87;2.70;;;;;;;;;;5050835;28;20655;-48
2022/10/02 00:29:14;;;;;;;10.27;2.80;;;;;;;;;;5050943;28;20196;-47
2022/10/02 00:31:43;;;;;;;11.17;3.00;;;;;;;;;;5053357;28;20256;-47
2022/10/02 00:34:20;;;;;;;6.87;2.40;;;;;;;;;;5054540;28;20203;-47
2022/10/02 00:36:51;;;;;;;6.97;2.27;;;;;;;;;;5054760;28;20232;-48
2022/10/02 00:39:24;;;;;;;8.93;2.90;;;;;;;;;;5054560;28;20204;-48
2022/10/02 00:42:06;;;;;;;7.90;3.03;;;;;;;;;;5054584;28;20215;-48
2022/10/02 00:44:41;;;;;;;7.70;2.73;;;;;;;;;;5054428;28;20196;-54
2022/10/02 00:47:12;;;;;;;5.73;2.90;;;;;;;;;;5054288;28;20199;-47
2022/10/02 00:49:43;;;;;;;7.43;2.30;;;;;;;;;;5054388;28;20196;-48
2022/10/02 00:52:17;;;;;;;8.83;2.80;;;;;;;;;;5054408;28;20196;-50
2022/10/02 00:54:47;;;;;;;7.67;2.50;;;;;;;;;;5054443;28;20214;-48
2022/10/02 00:57:17;;;;;;;8.67;2.40;;;;;;;;;;5053809;28;20252;-48
2022/10/02 00:59:51;;;;;;;8.90;2.60;;;;;;;;;;5054365;28;20207;-48
2022/10/02 01:02:32;;;;;;;10.43;3.03;;;;;;;;;;5054274;28;20192;-48
2022/10/02 01:04:58;;;;;;;10.83;2.63;;;;;;;;;;5053128;28;20266;-48
2022/10/02 01:07:26;;;;;;;9.40;2.80;;;;;;;;;;5054016;28;20652;-49
2022/10/02 01:09:53;;;;;;;7.70;2.73;;;;;;;;;;5054207;28;20614;-48
2022/10/02 01:12:19;;;;;;;8.27;2.63;;;;;;;;;;5053094;28;20807;-48
2022/10/02 01:14:45;;;;;;;13.53;3.43;;;;;;;;;;5054152;28;20659;-48
2022/10/02 01:17:20;;;;;;;7.93;2.70;;;;;;;;;;5054067;28;20293;-48
2022/10/02 01:19:46;;;;;;;7.67;2.37;;;;;;;;;;5053934;28;20291;-48
2022/10/02 01:22:15;;;;;;;4.77;2.47;;;;;;;;;;5053669;28;20238;-48
2022/10/02 01:24:49;;;;;;;7.83;2.20;;;;;;;;;;5053958;28;20200;-48
2022/10/02 01:27:15;;;;;;;11.43;2.60;;;;;;;;;;5054065;28;20207;-48
2022/10/02 01:29:42;;;;;;;7.43;2.40;;;;;;;;;;5053548;28;20857;-48
2022/10/02 01:32:09;;;;;;;5.73;2.37;;;;;;;;;;5053579;28;20303;-48
2022/10/02 01:34:36;;;;;;;7.33;2.60;;;;;;;;;;5053667;28;20598;-48
2022/10/02 01:37:02;;;;;;;6.30;2.30;;;;;;;;;;5053624;28;20698;-48
2022/10/02 01:39:28;;;;;;;7.30;2.40;;;;;;;;;;5053423;28;20200;-48
2022/10/02 01:41:56;;;;;;;5.80;2.50;;;;;;;;;;5052739;28;20192;-48
2022/10/02 01:44:23;;;;;;;8.90;2.53;;;;;;;;;;5053087;28;20203;-48
2022/10/02 01:46:53;;;;;;;8.40;3.20;;;;;;;;;;5052908;28;20251;-48
2022/10/02 01:49:26;;;;;;;11.53;3.00;;;;;;;;;;5053194;28;20235;-48
2022/10/02 01:51:58;;;;;;;8.77;2.47;;;;;;;;;;5053190;28;20200;-49
2022/10/02 01:54:30;;;;;;;10.73;3.27;;;;;;;;;;5053196;28;20215;-48
2022/10/02 01:57:05;;;;;;;7.13;3.10;;;;;;;;;;5052855;28;20224;-48
2022/10/02 01:59:37;;;;;;;5.43;2.10;;;;;;;;;;5053075;28;20200;-48
2022/10/02 02:02:10;;;;;;;6.73;2.90;;;;;;;;;;5053164;28;20257;-48
2022/10/02 02:04:40;;;;;;;7.50;2.80;;;;;;;;;;5053048;28;20200;-48
2022/10/02 02:07:11;;;;;;;9.50;2.90;;;;;;;;;;5053037;28;20429;-48
2022/10/02 02:09:39;;;;;;;9.03;3.00;;;;;;;;;;5053065;28;20207;-48
2022/10/02 02:12:11;;;;;;;8.77;2.83;;;;;;;;;;5052960;28;20676;-48
2022/10/02 02:14:39;;;;;;;6.43;2.50;;;;;;;;;;5052568;28;20295;-48
2022/10/02 02:17:08;;;;;;;12.70;3.60;;;;;;;;;;5052726;28;20232;-48
2022/10/02 02:19:36;;;;;;;8.93;3.10;;;;;;;;;;5052473;28;20246;-48
2022/10/02 02:22:06;;;;;;;10.67;2.80;;;;;;;;;;5052552;28;20666;-48
2022/10/02 02:24:35;;;;;;;12.67;3.50;;;;;;;;;;5052515;28;20678;-48
2022/10/02 02:27:02;;;;;;;13.67;3.50;;;;;;;;;;5052661;28;20193;-49
2022/10/02 02:29:32;;;;;;;11.93;3.63;;;;;;;;;;5052471;28;20199;-48
2022/10/02 02:31:59;;;;;;;13.83;3.83;;;;;;;;;;5052420;28;20228;-50
2022/10/02 02:34:29;;;;;;;14.40;3.27;;;;;;;;;;5052542;28;20568;-48
2022/10/02 02:36:56;;;;;;;14.37;4.13;;;;;;;;;;5052284;28;20275;-49
2022/10/02 02:39:26;;;;;;;9.53;3.57;;;;;;;;;;5052357;28;20621;-48
2022/10/02 02:41:55;;;;;;;9.47;3.40;;;;;;;;;;5052464;28;20279;-48
2022/10/02 02:44:23;;;;;;;8.70;3.10;;;;;;;;;;5052185;28;20290;-48
2022/10/02 02:47:05;;;;;;;16.77;3.70;;;;;;;;;;5052285;28;20200;-49
2022/10/02 02:49:37;;;;;;;20.40;4.23;;;;;;;;;;5052334;28;20207;-50
2022/10/02 02:52:04;;;;;;;12.97;3.90;;;;;;;;;;5052072;28;20254;-46
2022/10/02 02:54:31;;;;;;;13.60;4.40;;;;;;;;;;5051531;28;20225;-47
2022/10/02 02:56:59;;;;;;;11.00;4.00;;;;;;;;;;5051916;28;20228;-46
2022/10/02 02:59:27;;;;;;;13.50;4.13;;;;;;;;;;5051923;28;20204;-47
2022/10/02 03:01:55;;;;;;;14.43;3.90;;;;;;;;;;5051909;28;20242;-47
2022/10/02 03:04:21;;;;;;;14.00;3.90;;;;;;;;;;5051731;28;20207;-47
2022/10/02 03:06:48;;;;;;;9.03;3.50;;;;;;;;;;5051822;28;20200;-47
2022/10/02 03:09:16;;;;;;;11.67;3.80;;;;;;;;;;5051951;28;20240;-46
2022/10/02 03:11:48;;;;;;;13.43;3.87;;;;;;;;;;5051719;28;20729;-46
2022/10/02 03:14:30;;;;;;;7.20;3.27;;;;;;;;;;5051745;28;20205;-46
2022/10/02 03:17:05;;;;;;;7.87;3.40;;;;;;;;;;5051630;28;20341;-46
2022/10/02 03:19:37;;;;;;;8.40;3.47;;;;;;;;;;5051696;28;20222;-47
2022/10/02 03:22:05;;;;;;;14.63;3.73;;;;;;;;;;5051831;28;20279;-47
2022/10/02 03:24:34;;;;;;;14.23;3.63;;;;;;;;;;5051446;28;20204;-46
2022/10/02 03:27:04;;;;;;;15.10;4.07;;;;;;;;;;5051450;28;20650;-47
2022/10/02 03:29:34;;;;;;;17.20;4.23;;;;;;;;;;5051457;28;20702;-46
2022/10/02 03:32:03;;;;;;;20.47;4.53;;;;;;;;;;5051454;28;20789;-47
2022/10/02 03:34:31;;;;;;;16.93;4.30;;;;;;;;;;5051386;28;20290;-47
2022/10/02 03:36:57;;;;;;;15.33;4.23;;;;;;;;;;5051449;28;20224;-47
2022/10/02 03:39:23;;;;;;;12.50;4.13;;;;;;;;;;5051577;28;20199;-47
2022/10/02 03:41:49;;;;;;;17.07;4.60;;;;;;;;;;5051482;28;20428;-46
2022/10/02 03:44:15;;;;;;;13.60;4.97;;;;;;;;;;5051315;28;20714;-47
2022/10/02 03:46:41;;;;;;;14.23;4.50;;;;;;;;;;5051308;28;20196;-47
2022/10/02 03:49:08;;;;;;;14.33;4.60;;;;;;;;;;5051206;28;20679;-47
2022/10/02 03:51:34;;;;;;;8.73;3.57;;;;;;;;;;5050882;28;20476;-47
2022/10/02 03:54:00;;;;;;;12.43;3.77;;;;;;;;;;5051086;28;20204;-47
2022/10/02 03:56:34;;;;;;;15.20;4.57;;;;;;;;;;5051244;28;20571;-47
2022/10/02 03:59:02;;;;;;;8.33;3.60;;;;;;;;;;5051224;28;20581;-47
2022/10/02 04:01:31;;;;;;;9.80;4.10;;;;;;;;;;5050950;28;20237;-47
2022/10/02 04:03:59;;;;;;;9.20;3.90;;;;;;;;;;5051159;28;20227;-47
2022/10/02 04:06:31;;;;;;;8.10;3.73;;;;;;;;;;5053421;28;20199;-47
2022/10/02 04:09:00;;;;;;;15.43;4.80;;;;;;;;;;5055381;28;20252;-47
2022/10/02 04:11:30;;;;;;;11.23;3.93;;;;;;;;;;5055127;28;20565;-47
2022/10/02 04:13:59;;;;;;;14.80;3.53;;;;;;;;;;5055228;28;20196;-47
2022/10/02 04:16:29;;;;;;;11.53;3.80;;;;;;;;;;5054853;28;20242;-47
2022/10/02 04:18:56;;;;;;;14.03;4.07;;;;;;;;;;5055069;28;20207;-47
2022/10/02 04:21:26;;;;;;;16.03;4.60;;;;;;;;;;5055140;28;20274;-47
2022/10/02 04:23:57;;;;;;;14.03;4.77;;;;;;;;;;5055096;28;20258;-47
2022/10/02 04:26:25;;;;;;;12.10;5.60;;;;;;;;;;5054865;28;20933;-47
2022/10/02 04:28:54;;;;;;;15.40;4.47;;;;;;;;;;5054771;28;20212;-47
2022/10/02 04:31:20;;;;;;;13.67;5.13;;;;;;;;;;5054707;28;20256;-47
2022/10/02 04:33:46;;;;;;;12.67;4.20;;;;;;;;;;5054770;28;20204;-47
2022/10/02 04:36:18;;;;;;;12.80;5.53;;;;;;;;;;5054804;28;20200;-47
2022/10/02 04:38:54;;;;;;;11.27;4.10;;;;;;;;;;5054770;28;20196;-47
2022/10/02 04:41:33;;;;;;;10.97;4.97;;;;;;;;;;5054422;28;20207;-47
2022/10/02 04:44:05;;;;;;;15.53;5.00;;;;;;;;;;5054718;28;20219;-49
2022/10/02 04:46:43;;;;;;;14.23;5.73;;;;;;;;;;5054521;28;20282;-48
2022/10/02 04:49:24;;;;;;;13.83;5.50;;;;;;;;;;5054554;28;20222;-48
2022/10/02 04:51:57;;;;;;;11.90;4.20;;;;;;;;;;5037635;28;20197;-47
2022/10/02 04:54:34;;;;;;;15.77;5.43;;;;;;;;;;5054357;28;20264;-47
2022/10/02 04:57:11;;;;;;;9.17;4.50;;;;;;;;;;5053997;28;20235;-47
2022/10/02 04:59:43;;;;;;;14.07;5.43;;;;;;;;;;5054180;28;20224;-47
2022/10/02 05:02:20;;;;;;;19.27;6.20;;;;;;;;;;5054211;28;20567;-47
2022/10/02 05:04:53;;;;;;;11.97;6.00;;;;;;;;;;5054055;28;20224;-48
2022/10/02 05:07:33;;;;;;;13.27;5.90;;;;;;;;;;5054037;28;20757;-47
2022/10/02 05:10:07;;;;;;;12.33;6.10;;;;;;;;;;5053387;28;20211;-47
2022/10/02 05:12:40;;;;;;;17.30;7.03;;;;;;;;;;5051433;28;20195;-47
2022/10/02 05:15:22;;;;;;;18.07;7.40;;;;;;;;;;5053467;28;20258;-47
2022/10/02 05:17:54;;;;;;;10.70;6.47;;;;;;;;;;5053399;28;20694;-47
2022/10/02 05:20:28;;;;;;;16.30;7.13;;;;;;;;;;5052562;28;20627;-47
2022/10/02 05:23:09;;;;;;;19.30;6.87;;;;;;;;;;5052742;28;20204;-47
2022/10/02 05:25:52;;;;;;;15.47;6.60;;;;;;;;;;5052586;28;20227;-47
2022/10/02 05:28:28;;;;;;;19.33;7.60;;;;;;;;;;5053025;28;20239;-47
2022/10/02 05:31:02;;;;;;;14.73;6.70;;;;;;;;;;5053409;28;20235;-47
2022/10/02 05:33:35;;;;;;;18.17;7.63;;;;;;;;;;5053800;28;20283;-47
2022/10/02 05:36:15;;;;;;;20.13;7.13;;;;;;;;;;5052802;28;20204;-47
2022/10/02 05:38:50;;;;;;;16.33;7.17;;;;;;;;;;5050266;28;20235;-47
2022/10/02 05:41:18;;;;;;;16.80;7.40;;;;;;;;;;5053354;28;20290;-47
2022/10/02 05:43:48;;;;;;;23.93;7.97;;;;;;;;;;5052808;28;20223;-48
2022/10/02 05:46:15;;;;;;;17.43;6.80;;;;;;;;;;5053150;28;20608;-47
2022/10/02 05:48:44;;;;;;;19.97;8.20;;;;;;;;;;5052988;28;20207;-47
2022/10/02 05:51:13;;;;;;;18.07;7.53;;;;;;;;;;5053152;28;20572;-47
2022/10/02 05:53:42;;;;;;;13.87;6.70;;;;;;;;;;5052541;28;20295;-47
2022/10/02 05:56:10;;;;;;;14.50;7.50;;;;;;;;;;5053271;28;20303;-47
2022/10/02 05:58:38;;;;;;;18.30;7.00;;;;;;;;;;5052877;28;20226;-47
2022/10/02 06:01:08;;;;;;;21.53;7.43;;;;;;;;;;5053169;28;20211;-47
2022/10/02 06:03:39;;;;;;;21.73;7.10;;;;;;;;;;5052855;28;20266;-47
2022/10/02 06:06:10;;;;;;;16.60;6.77;;;;;;;;;;5052795;28;20231;-47
2022/10/02 06:08:39;;;;;;;27.47;13.07;;;;;;;;;;5052827;28;20270;-47
2022/10/02 06:11:07;;;;;;;27.73;13.27;;;;;;;;;;5052674;28;20203;-47
2022/10/02 06:13:37;;;;;;;21.47;8.60;;;;;;;;;;5050659;28;20206;-47
2022/10/02 06:16:08;;;;;;;17.40;7.60;;;;;;;;;;5053057;28;20243;-48
2022/10/02 06:18:37;;;;;;;15.10;6.77;;;;;;;;;;5052541;28;20228;-47
2022/10/02 06:21:07;;;;;;;17.03;6.67;;;;;;;;;;5052887;28;20609;-47
2022/10/02 06:23:35;;;;;;;16.53;6.70;;;;;;;;;;5052465;28;20200;-47
2022/10/02 06:26:02;;;;;;;16.33;7.13;;;;;;;;;;5052781;28;20346;-47
2022/10/02 06:28:32;;;;;;;15.40;6.13;;;;;;;;;;5051673;28;20254;-47
2022/10/02 06:31:01;;;;;;;14.13;5.90;;;;;;;;;;5052068;28;20202;-47
2022/10/02 06:33:29;;;;;;;16.37;6.13;;;;;;;;;;5052503;28;20560;-46
2022/10/02 06:36:21;;;;;;;14.37;6.13;;;;;;;;;;5052477;28;20567;-46
2022/10/02 06:39:00;;;;;;;12.57;6.83;;;;;;;;;;5005002;28;20239;-47
2022/10/02 06:41:32;;;;;;;16.77;6.17;;;;;;;;;;5052479;28;20247;-47
2022/10/02 06:44:03;;;;;;;19.60;6.70;;;;;;;;;;5052326;28;20235;-46
2022/10/02 06:46:33;;;;;;;15.13;6.20;;;;;;;;;;5052270;28;20208;-46
2022/10/02 06:49:01;;;;;;;14.93;6.27;;;;;;;;;;5052129;28;20662;-48
2022/10/02 06:51:34;;;;;;;12.30;5.23;;;;;;;;;;5052098;28;20287;-49
2022/10/02 06:54:10;;;;;;;14.47;6.00;;;;;;;;;;5052170;28;20940;-46
2022/10/02 06:56:47;;;;;;;14.37;5.73;;;;;;;;;;5050500;28;20294;-46
2022/10/02 06:59:21;;;;;;;10.53;5.40;;;;;;;;;;5051848;28;20281;-47
2022/10/02 07:01:50;;;;;;;13.20;5.70;;;;;;;;;;5051811;28;20200;-47
2022/10/02 07:04:21;;;;;;;17.33;6.30;;;;;;;;;;5051413;28;20220;-46
2022/10/02 07:06:56;;;;;;;15.23;5.67;;;;;;;;;;5051227;28;20192;-47
2022/10/02 07:09:35;;;;;;;13.20;5.90;;;;;;;;;;5051067;28;20650;-47
2022/10/02 07:12:06;;;;;;;10.07;5.37;;;;;;;;;;5051752;28;20243;-47
2022/10/02 07:14:40;;;;;;;14.33;5.83;;;;;;;;;;5051452;28;20231;-46
2022/10/02 07:17:17;;;;;;;15.13;5.63;;;;;;;;;;5051383;28;20220;-47
2022/10/02 07:20:01;;;;;;;12.60;5.47;;;;;;;;;;5051465;28;20653;-47
2022/10/02 07:22:32;;;;;;;12.60;5.37;;;;;;;;;;5051208;28;20573;-47
2022/10/02 07:25:09;;;;;;;13.43;5.60;;;;;;;;;;5051386;28;20208;-47
2022/10/02 07:27:38;;;;;;;13.73;5.40;;;;;;;;;;5051215;28;20577;-48
2022/10/02 07:30:05;;;;;;;13.10;4.90;;;;;;;;;;5051813;28;20200;-48
2022/10/02 07:32:52;;;;;;;10.90;5.37;;;;;;;;;;5050988;28;20228;-47
2022/10/02 07:35:27;;;;;;;14.20;5.07;;;;;;;;;;5044978;28;20299;-47
2022/10/02 07:37:59;;;;;;;12.23;4.77;;;;;;;;;;5051360;28;20318;-47
2022/10/02 07:40:34;;;;;;;14.70;4.97;;;;;;;;;;5050914;28;20215;-47
2022/10/02 07:43:15;;;;;;;12.13;4.90;;;;;;;;;;5051137;28;20200;-47
2022/10/02 07:45:45;;;;;;;13.27;5.30;;;;;;;;;;5050648;28;20224;-47
2022/10/02 07:48:19;;;;;;;11.03;4.23;;;;;;;;;;5051101;28;20199;-47
2022/10/02 07:50:52;;;;;;;10.13;4.10;;;;;;;;;;5049469;28;20574;-47
2022/10/02 07:53:23;;;;;;;11.40;4.07;;;;;;;;;;5051556;28;20243;-47
2022/10/02 07:55:52;;;;;;;11.23;4.20;;;;;;;;;;5051702;28;20195;-47
2022/10/02 07:58:22;;;;;;;12.00;4.17;;;;;;;;;;5051450;28;20706;-47
2022/10/02 08:00:51;;;;;;;7.67;3.80;;;;;;;;;;5051447;28;20207;-46
2022/10/02 08:03:20;;;;;;;13.60;4.10;;;;;;;;;;5051490;28;20199;-47
2022/10/02 08:05:48;;;;;;;12.00;4.50;;;;;;;;;;5051412;28;20199;-47
2022/10/02 08:08:15;;;;;;;12.23;4.30;;;;;;;;;;5051387;28;20208;-47
2022/10/02 08:10:43;;;;;;;13.53;3.70;;;;;;;;;;5051394;28;20243;-48
2022/10/02 08:13:14;;;;;;;9.57;4.07;;;;;;;;;;5051302;28;20220;-47
2022/10/02 08:15:42;;;;;;;8.97;3.60;;;;;;;;;;5051473;28;20206;-48
2022/10/02 08:18:12;;;;;;;10.60;3.70;;;;;;;;;;5051365;28;20690;-48
2022/10/02 08:20:39;;;;;;;13.73;3.60;;;;;;;;;;5051310;28;20247;-48
2022/10/02 08:23:09;;;;;;;9.03;3.07;;;;;;;;;;5051322;28;20689;-48
2022/10/02 08:25:38;;;;;;;12.03;3.60;;;;;;;;;;5051249;28;20575;-48
2022/10/02 08:28:07;;;;;;;9.90;4.43;;;;;;;;;;5051371;28;20243;-48
2022/10/02 08:30:35;;;;;;;11.20;3.87;;;;;;;;;;5051201;28;20188;-47
2022/10/02 08:33:01;;;;;;;13.97;3.90;;;;;;;;;;5051105;28;20240;-47
2022/10/02 08:35:35;;;;;;;12.17;4.20;;;;;;;;;;5051110;28;20200;-47
2022/10/02 08:38:12;;;;;;;11.67;3.60;;;;;;;;;;5051224;28;20224;-48
2022/10/02 08:40:50;;;;;;;9.63;3.80;;;;;;;;;;5051186;28;20235;-47
2022/10/02 08:43:36;;;;;;;11.07;3.30;;;;;;;;;;5051138;28;20560;-47
2022/10/02 08:46:11;;;;;;;10.53;3.30;;;;;;;;;;5051144;28;20192;-47
2022/10/02 08:48:53;;;;;;;8.73;3.10;;;;;;;;;;5051004;28;20255;-48
2022/10/02 08:51:38;;;;;;;10.03;3.20;;;;;;;;;;5051589;28;20207;-48
2022/10/02 08:54:15;;;;;;;12.40;3.27;;;;;;;;;;5054231;28;20297;-49
2022/10/02 08:56:54;;;;;;;8.87;3.37;;;;;;;;;;5054578;28;20208;-48
2022/10/02 08:59:30;;;;;;;7.03;2.90;;;;;;;;;;5054664;28;20601;-49
2022/10/02 09:02:15;;;;;;;7.77;2.30;;;;;;;;;;5054715;28;20208;-48
2022/10/02 09:04:59;;;;;;;9.70;3.27;;;;;;;;;;5054473;28;20233;-48
2022/10/02 09:07:50;;;;;;;8.50;3.10;;;;;;;;;;5054727;28;20220;-49
2022/10/02 09:10:44;;;;;;;9.53;3.10;;;;;;;;;;5054378;28;20659;-48
2022/10/02 09:13:26;;;;;;;10.70;3.10;;;;;;;;;;5054346;28;20206;-49
2022/10/02 09:15:58;;;;;;;8.07;2.80;;;;;;;;;;5054379;28;20193;-49
2022/10/02 09:18:37;;;;;;;6.70;2.63;;;;;;;;;;5054170;28;20351;-48
2022/10/02 09:21:14;;;;;;;8.90;3.03;;;;;;;;;;5054240;28;20206;-49
2022/10/02 09:23:59;;;;;;;9.00;2.47;;;;;;;;;;5054218;28;20226;-49
2022/10/02 09:26:29;;;;;;;6.47;2.53;;;;;;;;;;5054178;28;20250;-49
2022/10/02 09:29:10;;;;;;;9.60;2.80;;;;;;;;;;5054119;28;20200;-49
2022/10/02 09:31:57;;;;;;;8.10;2.53;;;;;;;;;;5053847;28;20243;-49
2022/10/02 09:34:32;;;;;;;6.37;2.10;;;;;;;;;;5053814;28;20196;-48
2022/10/02 09:37:12;;;;;;;8.67;3.00;;;;;;;;;;5053681;28;20261;-47
2022/10/02 09:39:51;;;;;;;10.27;3.13;;;;;;;;;;5053486;28;20764;-47
2022/10/02 09:42:27;;;;;;;7.90;2.50;;;;;;;;;;5053780;28;20282;-48
2022/10/02 09:45:20;;;;;;;8.90;2.90;;;;;;;;;;5053566;28;20654;-48
2022/10/02 09:48:03;;;;;;;6.00;2.17;;;;;;;;;;5053544;28;20200;-48
2022/10/02 09:50:59;;;;;;;9.17;2.50;;;;;;;;;;5010993;28;20204;-48
2022/10/02 09:53:40;;;;;;;7.73;2.90;;;;;;;;;;4972547;28;20206;-48
2022/10/02 09:56:26;;;;;;;11.27;2.70;;;;;;;;;;5042446;28;20674;-47
2022/10/02 09:59:12;;;;;;;8.47;2.80;;;;;;;;;;5053386;28;20271;-48
2022/10/02 10:02:05;;;;;;;7.87;2.67;;;;;;;;;;5053499;28;20208;-48
2022/10/02 10:04:46;;;;;;;8.20;2.73;;;;;;;;;;5052280;28;20261;-48
2022/10/02 10:07:24;;;;;;;9.33;2.93;;;;;;;;;;5036680;28;20216;-48
2022/10/02 10:10:11;;;;;;;7.47;2.53;;;;;;;;;;5053130;28;20697;-48
2022/10/02 10:12:55;;;;;;;9.93;2.73;;;;;;;;;;5047068;28;20200;-48
2022/10/02 10:15:37;;;;;;;7.90;2.60;;;;;;;;;;5053262;28;20286;-48
2022/10/02 10:18:16;;;;;;;8.83;2.70;;;;;;;;;;5053067;28;20235;-48
2022/10/02 10:20:54;;;;;;;9.07;3.07;;;;;;;;;;5052853;28;20261;-48
2022/10/02 10:23:37;;;;;;;8.17;2.70;;;;;;;;;;5052964;28;20200;-48
2022/10/02 10:26:14;;;;;;;5.07;2.03;;;;;;;;;;5052412;28;20214;-48
2022/10/02 10:28:58;;;;;;;5.97;2.37;;;;;;;;;;5052751;28;20670;-48
2022/10/02 10:31:43;;;;;;;6.97;2.27;;;;;;;;;;5053374;28;20235;-48
2022/10/02 10:34:45;;;;;;;6.73;2.47;;;;;;;;;;5053337;28;20184;-48
2022/10/02 10:40:15;;;;;;;10.93;3.00;;;;;;;;;;4991278;28;20224;-47
2022/10/02 10:43:06;;;;;;;8.67;3.17;;;;;;;;;;5035516;28;20216;-47
2022/10/02 10:45:47;;;;;;;8.30;2.63;;;;;;;;;;5053769;28;20206;-47
2022/10/02 10:48:22;;;;;;;11.00;3.27;;;;;;;;;;5051451;28;20263;-47
2022/10/02 10:50:53;;;;;;;8.77;2.80;;;;;;;;;;5052408;28;20671;-47
2022/10/02 10:53:29;;;;;;;8.17;2.67;;;;;;;;;;5052747;28;20204;-48
2022/10/02 10:56:16;;;;;;;8.70;2.50;;;;;;;;;;5053203;28;20262;-48
2022/10/02 10:58:49;;;;;;;7.83;2.70;;;;;;;;;;5052447;28;20223;-48
2022/10/02 11:01:17;;;;;;;12.50;2.63;;;;;;;;;;5052391;28;20208;-48
2022/10/02 11:04:12;;;;;;;7.97;2.70;;;;;;;;;;5052267;28;20241;-48
2022/10/02 11:06:55;;;;;;;7.63;2.50;;;;;;;;;;5052336;28;20196;-49
2022/10/02 11:09:51;;;;;;;10.00;2.87;;;;;;;;;;5052237;28;20283;-49
2022/10/02 11:12:32;;;;;;;7.23;2.50;;;;;;;;;;4971252;28;20581;-50
2022/10/02 11:15:12;;;;;;;8.03;2.30;;;;;;;;;;5039050;28;20203;-49
2022/10/02 11:17:55;;;;;;;4.73;2.17;;;;;;;;;;5052108;28;20223;-49
2022/10/02 11:20:36;;;;;;;7.53;2.30;;;;;;;;;;5052103;28;20211;-49
2022/10/02 11:23:14;;;;;;;6.63;2.50;;;;;;;;;;5035293;28;20729;-49
2022/10/02 11:25:51;;;;;;;6.37;2.07;;;;;;;;;;5051877;28;20201;-49
2022/10/02 11:28:28;;;;;;;7.00;1.87;;;;;;;;;;5052028;28;20198;-49
2022/10/02 11:31:00;;;;;;;4.63;1.87;;;;;;;;;;5051866;28;20229;-49
2022/10/02 11:33:47;;;;;;;5.30;1.87;;;;;;;;;;5051865;28;20250;-49
2022/10/02 11:36:40;;;;;;;6.30;2.30;;;;;;;;;;5052014;28;20215;-49
2022/10/02 11:39:12;;;;;;;6.47;2.23;;;;;;;;;;5051741;28;20238;-49
2022/10/02 11:41:58;;;;;;;7.17;2.23;;;;;;;;;;5051608;28;20211;-49
2022/10/02 11:44:33;;;;;;;7.53;2.70;;;;;;;;;;5051752;28;20416;-48
2022/10/02 11:47:09;;;;;;;6.60;1.90;;;;;;;;;;5051740;28;20198;-48
2022/10/02 11:49:52;;;;;;;8.07;2.20;;;;;;;;;;5051566;28;20210;-48
2022/10/02 11:52:23;;;;;;;6.47;1.83;;;;;;;;;;5051760;28;20276;-48
2022/10/02 11:54:55;;;;;;;4.40;2.10;;;;;;;;;;5051446;28;20200;-48
2022/10/02 11:57:25;;;;;;;7.23;2.13;;;;;;;;;;5051373;28;20227;-48
2022/10/02 12:00:12;;;;;;;7.87;2.20;;;;;;;;;;5051381;28;20729;-48
2022/10/02 12:02:41;;;;;;;6.57;2.00;;;;;;;;;;5051519;28;20216;-48
2022/10/02 12:05:17;;;;;;;6.60;2.20;;;;;;;;;;5051308;28;20199;-48
2022/10/02 12:07:47;;;;;;;9.30;2.23;;;;;;;;;;5051321;28;20249;-48
2022/10/02 12:10:28;;;;;;;7.30;2.37;;;;;;;;;;5051490;28;20223;-48
2022/10/02 12:13:01;;;;;;;5.93;2.10;;;;;;;;;;5051285;28;20194;-48
2022/10/02 12:15:33;;;;;;;9.83;2.67;;;;;;;;;;5051348;28;20732;-48
2022/10/02 12:18:05;;;;;;;5.47;1.93;;;;;;;;;;5051384;28;20223;-48
2022/10/02 12:29:09;;;;;;;6.50;2.50;;;;;;;;;;5055374;28;20245;-48
2022/10/02 12:31:49;;;;;;;11.00;2.37;;;;;;;;;;5054867;28;20235;-47
2022/10/02 12:34:28;;;;;;;5.37;2.00;;;;;;;;;;5055303;28;20926;-48
2022/10/02 12:36:57;;;;;;;6.00;1.90;;;;;;;;;;5054923;28;20203;-48
2022/10/02 12:39:36;;;;;;;6.77;2.40;;;;;;;;;;5054956;28;20662;-49
2022/10/02 12:42:26;;;;;;;3.93;1.90;;;;;;;;;;5054859;28;20206;-49
2022/10/02 12:45:03;;;;;;;6.03;2.10;;;;;;;;;;5034774;28;20564;-48
2022/10/02 12:47:48;;;;;;;7.10;2.40;;;;;;;;;;5054917;28;20188;-48
2022/10/02 12:50:22;;;;;;;5.40;1.80;;;;;;;;;;5054856;28;20192;-48
2022/10/02 12:53:06;;;;;;;6.17;2.10;;;;;;;;;;5054805;28;20230;-49
2022/10/02 12:55:47;;;;;;;5.93;1.87;;;;;;;;;;5054851;28;20203;-48
2022/10/02 12:58:21;;;;;;;5.07;2.00;;;;;;;;;;5054700;28;20232;-48
2022/10/02 13:01:02;;;;;;;6.63;2.00;;;;;;;;;;5054502;28;20196;-48
2022/10/02 13:03:54;;;;;;;4.67;1.80;;;;;;;;;;5054637;28;20208;-48
2022/10/02 13:06:39;;;;;;;7.67;2.03;;;;;;;;;;5035353;28;20208;-49
2022/10/02 13:09:23;;;;;;;5.70;1.87;;;;;;;;;;5054295;28;20208;-48
2022/10/02 13:11:56;;;;;;;5.13;1.70;;;;;;;;;;5053888;28;20207;-48
2022/10/02 13:14:40;;;;;;;6.00;2.10;;;;;;;;;;5054353;28;20660;-49
2022/10/02 13:17:21;;;;;;;4.30;1.83;;;;;;;;;;5054222;28;20200;-48
2022/10/02 13:19:57;;;;;;;6.07;2.10;;;;;;;;;;5054301;28;20210;-49
2022/10/02 13:22:30;;;;;;;6.43;1.73;;;;;;;;;;5054422;28;20562;-49
2022/10/02 13:25:01;;;;;;;6.87;2.17;;;;;;;;;;5054037;28;20202;-49
2022/10/02 13:27:34;;;;;;;4.00;2.00;;;;;;;;;;5054112;28;20204;-48
2022/10/02 13:30:12;;;;;;;5.40;1.67;;;;;;;;;;5053986;28;20240;-49
2022/10/02 13:32:53;;;;;;;6.03;2.00;;;;;;;;;;5053911;28;20662;-48
2022/10/02 13:35:28;;;;;;;5.10;1.80;;;;;;;;;;5051157;28;20220;-48
2022/10/02 13:38:02;;;;;;;5.93;1.80;;;;;;;;;;5053581;28;20230;-48
2022/10/02 13:40:30;;;;;;;4.33;1.97;;;;;;;;;;5053914;28;20317;-48
2022/10/02 13:43:09;;;;;;;4.67;1.57;;;;;;;;;;5053905;28;20205;-47
2022/10/02 13:45:37;;;;;;;4.73;1.90;;;;;;;;;;5053723;28;20795;-47
2022/10/02 13:48:11;;;;;;;3.83;1.97;;;;;;;;;;5052430;28;20242;-47
2022/10/02 13:50:49;;;;;;;5.83;1.97;;;;;;;;;;5053722;28;20211;-47
2022/10/02 13:53:39;;;;;;;5.47;2.23;;;;;;;;;;5053689;28;20196;-48
2022/10/02 13:56:08;;;;;;;5.67;1.90;;;;;;;;;;5042935;28;20318;-47
2022/10/02 13:58:44;;;;;;;6.40;2.23;;;;;;;;;;5053549;28;20216;-49
2022/10/02 14:01:18;;;;;;;4.53;1.60;;;;;;;;;;5053465;28;20206;-47
2022/10/02 14:03:59;;;;;;;5.93;2.10;;;;;;;;;;5053208;28;20693;-48
2022/10/02 14:06:27;;;;;;;7.57;2.30;;;;;;;;;;5050195;28;20602;-46
2022/10/02 14:09:06;;;;;;;8.63;2.43;;;;;;;;;;5052979;28;20212;-46
2022/10/02 14:11:37;;;;;;;6.90;2.43;;;;;;;;;;5053185;28;20199;-47
2022/10/02 14:14:12;;;;;;;7.47;2.50;;;;;;;;;;5053381;28;20195;-46
2022/10/02 14:16:44;;;;;;;7.20;2.10;;;;;;;;;;5053010;28;20203;-47
2022/10/02 14:19:28;;;;;;;6.10;2.10;;;;;;;;;;5053229;28;20224;-48
2022/10/02 14:22:02;;;;;;;6.23;2.20;;;;;;;;;;5039687;28;20200;-47
2022/10/02 14:27:43;;;;;;;5.03;1.90;;;;;;;;;;5053226;28;20202;-47
2022/10/02 14:30:15;;;;;;;6.27;2.27;;;;;;;;;;5052872;28;20271;-47
2022/10/02 14:32:48;;;;;;;4.47;1.83;;;;;;;;;;5052775;28;20379;-47
2022/10/02 14:35:25;;;;;;;3.87;1.73;;;;;;;;;;5053028;28;20239;-47
2022/10/02 14:38:09;;;;;;;7.27;1.70;;;;;;;;;;5052500;28;20314;-47
2022/10/02 14:40:39;;;;;;;3.50;1.47;;;;;;;;;;5052565;28;20200;-48
2022/10/02 14:43:13;;;;;;;7.10;1.70;;;;;;;;;;5052636;28;20223;-48
2022/10/02 14:45:57;;;;;;;4.90;2.00;;;;;;;;;;5052715;28;20192;-48
2022/10/02 14:48:36;;;;;;;8.13;2.10;;;;;;;;;;5052605;28;20238;-47
2022/10/02 14:51:11;;;;;;;6.63;1.97;;;;;;;;;;5052218;28;20207;-47
2022/10/02 14:53:48;;;;;;;9.27;2.37;;;;;;;;;;5052535;28;20206;-48
2022/10/02 14:56:41;;;;;;;9.07;1.90;;;;;;;;;;5052738;28;20270;-48
2022/10/02 14:59:15;;;;;;;5.40;2.13;;;;;;;;;;5005643;28;20239;-48
2022/10/02 15:01:44;;;;;;;8.37;1.90;;;;;;;;;;5052346;28;20234;-48
2022/10/02 15:04:20;;;;;;;7.27;2.00;;;;;;;;;;5052376;28;20572;-47
2022/10/02 15:06:55;;;;;;;4.97;2.00;;;;;;;;;;5052183;28;20214;-48
2022/10/02 15:09:23;;;;;;;5.37;1.83;;;;;;;;;;5052285;28;20207;-48
2022/10/02 15:11:55;;;;;;;6.40;2.00;;;;;;;;;;5052099;28;20203;-47
2022/10/02 15:14:24;;;;;;;5.20;1.87;;;;;;;;;;5052273;28;20287;-48
2022/10/02 15:19:45;;;;;;;6.40;2.13;;;;;;;;;;5052146;28;20203;-47
2022/10/02 15:22:18;;;;;;;5.07;2.10;;;;;;;;;;5052264;28;20289;-48
2022/10/02 15:24:45;;;;;;;8.13;2.30;;;;;;;;;;5051986;28;20196;-48
2022/10/02 15:27:18;;;;;;;4.13;1.90;;;;;;;;;;5052157;28;20200;-49
2022/10/02 15:29:59;;;;;;;6.70;2.27;;;;;;;;;;5052173;28;20275;-48
2022/10/02 15:32:42;;;;;;;9.33;2.10;;;;;;;;;;5048566;28;20318;-49
2022/10/02 15:35:18;;;;;;;9.47;2.00;;;;;;;;;;5051977;28;20200;-49
2022/10/02 15:37:48;;;;;;;7.77;2.03;;;;;;;;;;5051700;28;20219;-48